sensor_id;sensor_type;location;lat;lon;timestamp;pressure;altitude;pressure_sealevel;temperature;humidity
9189;BME280;34313;50.780;6.084;2023-03-14T00:01:12;97121.34;;;10.90;96.73
9189;BME280;34313;50.780;6.084;2023-03-14T00:03:38;97120.16;;;11.03;96.56
9189;BME280;34313;50.780;6.084;2023-03-14T00:06:05;97130.84;;;11.01;96.60
9189;BME280;34313;50.780;6.084;2023-03-14T00:08:31;97122.63;;;11.04;97.00
9189;BME280;34313;50.780;6.084;2023-03-14T00:10:56;97158.69;;;11.04;98.05
9189;BME280;34313;50.780;6.084;2023-03-14T00:13:24;97161.47;;;11.02;98.72
9189;BME280;34313;50.780;6.084;2023-03-14T00:15:49;97167.91;;;11.00;100.00
9189;BME280;34313;50.780;6.084;2023-03-14T00:18:14;97197.19;;;10.96;100.00
9189;BME280;34313;50.780;6.084;2023-03-14T00:20:40;97201.38;;;10.89;100.00
9189;BME280;34313;50.780;6.084;2023-03-14T00:23:06;97207.16;;;10.75;100.00
9189;BME280;34313;50.780;6.084;2023-03-14T00:25:32;97217.25;;;10.52;100.00
9189;BME280;34313;50.780;6.084;2023-03-14T00:27:57;97211.88;;;10.44;100.00
9189;BME280;34313;50.780;6.084;2023-03-14T00:30:23;97219.38;;;10.29;100.00
9189;BME280;34313;50.780;6.084;2023-03-14T00:32:48;97218.81;;;10.25;100.00
9189;BME280;34313;50.780;6.084;2023-03-14T00:35:14;97199.44;;;10.16;100.00
9189;BME280;34313;50.780;6.084;2023-03-14T00:37:39;97185.25;;;9.99;100.00
9189;BME280;34313;50.780;6.084;2023-03-14T00:40:05;97183.03;;;9.95;100.00
9189;BME280;34313;50.780;6.084;2023-03-14T00:42:32;97192.19;;;9.91;100.00
9189;BME280;34313;50.780;6.084;2023-03-14T00:44:58;97182.09;;;9.76;100.00
9189;BME280;34313;50.780;6.084;2023-03-14T00:47:23;97183.63;;;9.79;100.00
9189;BME280;34313;50.780;6.084;2023-03-14T00:49:49;97177.97;;;9.64;100.00
9189;BME280;34313;50.780;6.084;2023-03-14T00:52:14;97183.13;;;9.56;100.00
9189;BME280;34313;50.780;6.084;2023-03-14T00:54:39;97190.59;;;9.41;100.00
9189;BME280;34313;50.780;6.084;2023-03-14T00:57:05;97186.16;;;9.32;100.00
9189;BME280;34313;50.780;6.084;2023-03-14T00:59:30;97183.13;;;9.36;100.00
9189;BME280;34313;50.780;6.084;2023-03-14T01:01:55;97187.53;;;9.36;100.00
9189;BME280;34313;50.780;6.084;2023-03-14T01:04:21;97187.25;;;9.39;100.00
9189;BME280;34313;50.780;6.084;2023-03-14T01:06:47;97184.50;;;9.40;100.00
9189;BME280;34313;50.780;6.084;2023-03-14T01:09:12;97186.44;;;9.38;100.00
9189;BME280;34313;50.780;6.084;2023-03-14T01:11:37;97178.13;;;9.43;100.00
9189;BME280;34313;50.780;6.084;2023-03-14T01:14:03;97170.78;;;9.46;100.00
9189;BME280;34313;50.780;6.084;2023-03-14T01:16:32;97162.22;;;9.54;100.00
9189;BME280;34313;50.780;6.084;2023-03-14T01:18:58;97151.97;;;9.51;100.00
9189;BME280;34313;50.780;6.084;2023-03-14T01:21:36;97150.72;;;9.55;100.00
9189;BME280;34313;50.780;6.084;2023-03-14T01:24:04;97141.88;;;9.56;100.00
9189;BME280;34313;50.780;6.084;2023-03-14T01:26:32;97141.44;;;9.51;100.00
9189;BME280;34313;50.780;6.084;2023-03-14T01:28:59;97143.69;;;9.36;100.00
9189;BME280;34313;50.780;6.084;2023-03-14T01:31:25;97135.66;;;9.28;100.00
9189;BME280;34313;50.780;6.084;2023-03-14T01:33:51;97136.94;;;9.24;100.00
9189;BME280;34313;50.780;6.084;2023-03-14T01:36:17;97130.84;;;9.14;100.00
9189;BME280;34313;50.780;6.084;2023-03-14T01:38:42;97135.53;;;9.10;100.00
9189;BME280;34313;50.780;6.084;2023-03-14T01:41:13;97127.78;;;8.99;100.00
9189;BME280;34313;50.780;6.084;2023-03-14T01:43:39;97128.03;;;8.96;100.00
9189;BME280;34313;50.780;6.084;2023-03-14T01:48:37;97128.63;;;8.89;100.00
9189;BME280;34313;50.780;6.084;2023-03-14T01:51:06;97120.59;;;8.72;100.00
9189;BME280;34313;50.780;6.084;2023-03-14T01:53:34;97128.03;;;8.76;100.00
9189;BME280;34313;50.780;6.084;2023-03-14T01:56:00;97119.34;;;8.85;100.00
9189;BME280;34313;50.780;6.084;2023-03-14T01:58:26;97133.03;;;8.99;100.00
9189;BME280;34313;50.780;6.084;2023-03-14T02:00:57;97122.13;;;9.03;100.00
9189;BME280;34313;50.780;6.084;2023-03-14T02:03:24;97121.56;;;9.09;100.00
9189;BME280;34313;50.780;6.084;2023-03-14T02:05:53;97123.75;;;9.04;100.00
9189;BME280;34313;50.780;6.084;2023-03-14T02:08:22;97124.88;;;9.02;100.00
9189;BME280;34313;50.780;6.084;2023-03-14T02:10:49;97121.44;;;9.01;100.00
9189;BME280;34313;50.780;6.084;2023-03-14T02:13:17;97119.06;;;9.08;100.00
9189;BME280;34313;50.780;6.084;2023-03-14T02:15:44;97127.09;;;9.16;100.00
9189;BME280;34313;50.780;6.084;2023-03-14T02:18:10;97129.19;;;9.22;100.00
9189;BME280;34313;50.780;6.084;2023-03-14T02:26:24;97104.09;;;9.48;100.00
9189;BME280;34313;50.780;6.084;2023-03-14T02:28:53;97095.94;;;9.51;100.00
9189;BME280;34313;50.780;6.084;2023-03-14T02:31:19;97094.66;;;9.55;100.00
9189;BME280;34313;50.780;6.084;2023-03-14T02:33:46;97091.06;;;9.56;100.00
9189;BME280;34313;50.780;6.084;2023-03-14T02:36:14;97083.44;;;9.62;100.00
9189;BME280;34313;50.780;6.084;2023-03-14T02:38:56;97075.13;;;9.67;100.00
9189;BME280;34313;50.780;6.084;2023-03-14T02:41:25;97084.22;;;9.73;100.00
9189;BME280;34313;50.780;6.084;2023-03-14T02:43:50;97089.66;;;9.71;100.00
9189;BME280;34313;50.780;6.084;2023-03-14T02:46:18;97080.63;;;9.74;100.00
9189;BME280;34313;50.780;6.084;2023-03-14T02:48:51;97088.09;;;9.78;100.00
9189;BME280;34313;50.780;6.084;2023-03-14T02:51:19;97072.06;;;9.72;100.00
9189;BME280;34313;50.780;6.084;2023-03-14T02:53:45;97074.56;;;9.73;100.00
9189;BME280;34313;50.780;6.084;2023-03-14T02:56:11;97060.47;;;9.64;100.00
9189;BME280;34313;50.780;6.084;2023-03-14T02:58:37;97059.63;;;9.64;100.00
9189;BME280;34313;50.780;6.084;2023-03-14T03:01:03;97071.25;;;9.61;100.00
9189;BME280;34313;50.780;6.084;2023-03-14T03:03:28;97066.28;;;9.58;100.00
9189;BME280;34313;50.780;6.084;2023-03-14T03:05:55;97061.47;;;9.54;100.00
9189;BME280;34313;50.780;6.084;2023-03-14T03:08:22;97060.06;;;9.50;100.00
9189;BME280;34313;50.780;6.084;2023-03-14T03:10:49;97055.81;;;9.49;100.00
9189;BME280;34313;50.780;6.084;2023-03-14T03:13:15;97058.44;;;9.49;100.00
9189;BME280;34313;50.780;6.084;2023-03-14T03:15:40;97064.66;;;9.48;100.00
9189;BME280;34313;50.780;6.084;2023-03-14T03:18:06;97059.41;;;9.48;100.00
9189;BME280;34313;50.780;6.084;2023-03-14T03:20:32;97059.66;;;9.54;100.00
9189;BME280;34313;50.780;6.084;2023-03-14T03:22:58;97055.97;;;9.37;100.00
9189;BME280;34313;50.780;6.084;2023-03-14T03:25:24;97047.13;;;9.38;100.00
9189;BME280;34313;50.780;6.084;2023-03-14T03:27:49;97058.31;;;9.31;100.00
9189;BME280;34313;50.780;6.084;2023-03-14T03:30:15;97060.53;;;9.35;100.00
9189;BME280;34313;50.780;6.084;2023-03-14T03:32:40;97047.53;;;9.43;100.00
9189;BME280;34313;50.780;6.084;2023-03-14T03:35:06;97050.56;;;9.39;100.00
9189;BME280;34313;50.780;6.084;2023-03-14T03:37:32;97049.59;;;9.40;100.00
9189;BME280;34313;50.780;6.084;2023-03-14T03:39:58;97055.41;;;9.34;100.00
9189;BME280;34313;50.780;6.084;2023-03-14T03:42:26;97040.06;;;9.29;100.00
9189;BME280;34313;50.780;6.084;2023-03-14T03:44:51;97034.13;;;9.27;100.00
9189;BME280;34313;50.780;6.084;2023-03-14T03:47:16;97036.19;;;9.33;100.00
9189;BME280;34313;50.780;6.084;2023-03-14T03:49:42;97031.91;;;9.32;100.00
9189;BME280;34313;50.780;6.084;2023-03-14T03:52:07;97022.66;;;9.28;100.00
9189;BME280;34313;50.780;6.084;2023-03-14T03:54:34;97029.84;;;9.26;100.00
9189;BME280;34313;50.780;6.084;2023-03-14T03:56:59;97027.91;;;9.28;100.00
9189;BME280;34313;50.780;6.084;2023-03-14T03:59:24;97025.69;;;9.33;100.00
9189;BME280;34313;50.780;6.084;2023-03-14T04:01:50;97028.84;;;9.27;100.00
9189;BME280;34313;50.780;6.084;2023-03-14T04:04:15;97030.13;;;9.23;100.00
9189;BME280;34313;50.780;6.084;2023-03-14T04:06:40;97025.69;;;9.23;100.00
9189;BME280;34313;50.780;6.084;2023-03-14T04:09:08;97020.44;;;9.23;100.00
9189;BME280;34313;50.780;6.084;2023-03-14T04:11:33;97017.13;;;9.21;100.00
9189;BME280;34313;50.780;6.084;2023-03-14T04:13:58;97030.13;;;9.23;100.00
9189;BME280;34313;50.780;6.084;2023-03-14T04:16:25;97021.00;;;9.17;100.00
9189;BME280;34313;50.780;6.084;2023-03-14T04:18:51;97009.97;;;9.14;100.00
9189;BME280;34313;50.780;6.084;2023-03-14T04:21:17;97018.25;;;9.19;100.00
9189;BME280;34313;50.780;6.084;2023-03-14T04:23:42;97014.09;;;9.16;100.00
9189;BME280;34313;50.780;6.084;2023-03-14T04:26:08;97017.94;;;9.22;100.00
9189;BME280;34313;50.780;6.084;2023-03-14T04:28:34;97017.94;;;9.22;100.00
9189;BME280;34313;50.780;6.084;2023-03-14T04:31:16;97019.03;;;9.29;100.00
9189;BME280;34313;50.780;6.084;2023-03-14T04:33:42;97010.59;;;9.25;100.00
9189;BME280;34313;50.780;6.084;2023-03-14T04:36:08;96992.19;;;9.25;100.00
9189;BME280;34313;50.780;6.084;2023-03-14T04:38:34;97001.91;;;9.25;100.00
9189;BME280;34313;50.780;6.084;2023-03-14T04:41:00;97007.56;;;9.30;100.00
9189;BME280;34313;50.780;6.084;2023-03-14T04:43:26;97002.97;;;9.32;100.00
9189;BME280;34313;50.780;6.084;2023-03-14T04:45:55;97000.81;;;9.27;100.00
9189;BME280;34313;50.780;6.084;2023-03-14T04:48:22;96994.69;;;9.27;100.00
9189;BME280;34313;50.780;6.084;2023-03-14T04:50:48;97008.81;;;9.26;100.00
9189;BME280;34313;50.780;6.084;2023-03-14T04:53:13;96997.47;;;9.25;100.00
9189;BME280;34313;50.780;6.084;2023-03-14T04:55:39;97000.53;;;9.21;100.00
9189;BME280;34313;50.780;6.084;2023-03-14T04:58:04;96987.41;;;9.21;100.00
9189;BME280;34313;50.780;6.084;2023-03-14T05:00:30;96988.22;;;9.21;100.00
9189;BME280;34313;50.780;6.084;2023-03-14T05:02:55;96982.81;;;9.23;100.00
9189;BME280;34313;50.780;6.084;2023-03-14T05:05:21;96985.03;;;9.18;100.00
9189;BME280;34313;50.780;6.084;2023-03-14T05:07:46;96986.72;;;9.19;100.00
9189;BME280;34313;50.780;6.084;2023-03-14T05:10:11;96982.81;;;9.23;100.00
9189;BME280;34313;50.780;6.084;2023-03-14T05:12:37;96982.41;;;9.18;100.00
9189;BME280;34313;50.780;6.084;2023-03-14T05:15:03;96982.28;;;9.19;100.00
9189;BME280;34313;50.780;6.084;2023-03-14T05:17:29;96977.56;;;9.23;100.00
9189;BME280;34313;50.780;6.084;2023-03-14T05:19:55;96972.88;;;9.17;100.00
9189;BME280;34313;50.780;6.084;2023-03-14T05:22:20;96972.97;;;9.25;100.00
9189;BME280;34313;50.780;6.084;2023-03-14T05:24:46;96962.47;;;9.25;100.00
9189;BME280;34313;50.780;6.084;2023-03-14T05:27:11;96965.38;;;9.22;100.00
9189;BME280;34313;50.780;6.084;2023-03-14T05:29:36;96968.19;;;9.20;100.00
9189;BME280;34313;50.780;6.084;2023-03-14T05:32:02;96959.31;;;9.21;100.00
9189;BME280;34313;50.780;6.084;2023-03-14T05:34:27;96950.16;;;9.25;100.00
9189;BME280;34313;50.780;6.084;2023-03-14T05:36:52;96949.06;;;9.18;100.00
9189;BME280;34313;50.780;6.084;2023-03-14T05:39:18;96959.31;;;9.21;100.00
9189;BME280;34313;50.780;6.084;2023-03-14T05:41:43;96944.41;;;9.12;100.00
9189;BME280;34313;50.780;6.084;2023-03-14T05:44:08;96950.91;;;9.08;100.00
9189;BME280;34313;50.780;6.084;2023-03-14T05:46:34;96940.78;;;9.13;100.00
9189;BME280;34313;50.780;6.084;2023-03-14T05:48:59;96945.41;;;9.01;100.00
9189;BME280;34313;50.780;6.084;2023-03-14T05:51:25;96942.19;;;9.07;100.00
9189;BME280;34313;50.780;6.084;2023-03-14T05:53:51;96944.81;;;9.07;100.00
9189;BME280;34313;50.780;6.084;2023-03-14T05:56:16;96955.19;;;9.09;100.00
9189;BME280;34313;50.780;6.084;2023-03-14T05:58:41;96953.78;;;9.15;100.00
9189;BME280;34313;50.780;6.084;2023-03-14T06:01:07;96950.63;;;9.11;100.00
9189;BME280;34313;50.780;6.084;2023-03-14T06:03:33;96957.66;;;9.20;100.00
9189;BME280;34313;50.780;6.084;2023-03-14T06:05:59;96951.97;;;9.25;100.00
9189;BME280;34313;50.780;6.084;2023-03-14T06:08:24;96948.78;;;9.21;100.00
9189;BME280;34313;50.780;6.084;2023-03-14T06:10:50;96954.31;;;9.28;100.00
9189;BME280;34313;50.780;6.084;2023-03-14T06:13:16;96952.09;;;9.33;100.00
9189;BME280;34313;50.780;6.084;2023-03-14T06:15:41;96944.06;;;9.35;100.00
9189;BME280;34313;50.780;6.084;2023-03-14T06:18:07;96945.69;;;9.36;100.00
9189;BME280;34313;50.780;6.084;2023-03-14T06:20:35;96959.50;;;9.48;100.00
9189;BME280;34313;50.780;6.084;2023-03-14T06:23:00;96952.56;;;9.46;100.00
9189;BME280;34313;50.780;6.084;2023-03-14T06:25:25;96959.50;;;9.48;100.00
9189;BME280;34313;50.780;6.084;2023-03-14T06:27:51;96957.53;;;9.50;100.00
9189;BME280;34313;50.780;6.084;2023-03-14T06:30:16;96965.00;;;9.54;100.00
9189;BME280;34313;50.780;6.084;2023-03-14T06:32:42;96957.13;;;9.54;100.00
9189;BME280;34313;50.780;6.084;2023-03-14T06:35:07;96953.88;;;9.60;100.00
9189;BME280;34313;50.780;6.084;2023-03-14T06:37:33;96956.38;;;9.62;100.00
9189;BME280;34313;50.780;6.084;2023-03-14T06:39:59;96951.91;;;9.72;100.00
9189;BME280;34313;50.780;6.084;2023-03-14T06:42:24;96949.78;;;9.76;100.00
9189;BME280;34313;50.780;6.084;2023-03-14T06:44:50;96968.16;;;9.86;100.00
9189;BME280;34313;50.780;6.084;2023-03-14T06:47:15;96945.47;;;9.84;100.00
9189;BME280;34313;50.780;6.084;2023-03-14T06:49:43;96948.03;;;9.94;100.00
9189;BME280;34313;50.780;6.084;2023-03-14T06:52:09;96958.28;;;10.15;100.00
9189;BME280;34313;50.780;6.084;2023-03-14T06:54:34;96953.44;;;10.38;100.00
9189;BME280;34313;50.780;6.084;2023-03-14T06:56:59;96956.53;;;10.52;100.00
9189;BME280;34313;50.780;6.084;2023-03-14T06:59:25;96964.31;;;10.62;100.00
9189;BME280;34313;50.780;6.084;2023-03-14T07:04:25;96973.97;;;10.53;100.00
9189;BME280;34313;50.780;6.084;2023-03-14T07:06:51;96976.81;;;10.59;100.00
9189;BME280;34313;50.780;6.084;2023-03-14T07:09:16;96970.13;;;10.65;100.00
9189;BME280;34313;50.780;6.084;2023-03-14T07:11:44;96978.84;;;10.66;100.00
9189;BME280;34313;50.780;6.084;2023-03-14T07:14:10;96970.19;;;10.73;100.00
9189;BME280;34313;50.780;6.084;2023-03-14T07:16:35;96976.66;;;10.79;100.00
9189;BME280;34313;50.780;6.084;2023-03-14T07:19:01;96975.75;;;10.70;100.00
9189;BME280;34313;50.780;6.084;2023-03-14T07:21:27;96977.28;;;10.73;100.00
9189;BME280;34313;50.780;6.084;2023-03-14T07:23:53;96991.69;;;10.87;100.00
9189;BME280;34313;50.780;6.084;2023-03-14T07:26:18;96989.56;;;10.90;100.00
9189;BME280;34313;50.780;6.084;2023-03-14T07:28:43;96985.44;;;10.88;100.00
9189;BME280;34313;50.780;6.084;2023-03-14T07:31:09;96989.56;;;10.90;100.00
9189;BME280;34313;50.780;6.084;2023-03-14T07:33:34;96986.28;;;10.88;100.00
9189;BME280;34313;50.780;6.084;2023-03-14T07:36:00;96996.28;;;11.03;100.00
9189;BME280;34313;50.780;6.084;2023-03-14T07:38:25;96995.94;;;11.24;100.00
9189;BME280;34313;50.780;6.084;2023-03-14T07:40:57;96995.13;;;11.58;100.00
9189;BME280;34313;50.780;6.084;2023-03-14T07:43:23;97001.03;;;11.86;100.00
9189;BME280;34313;50.780;6.084;2023-03-14T07:45:48;97000.59;;;11.99;100.00
9189;BME280;34313;50.780;6.084;2023-03-14T07:48:13;97000.88;;;11.87;100.00
9189;BME280;34313;50.780;6.084;2023-03-14T07:50:39;97003.94;;;11.75;100.00
9189;BME280;34313;50.780;6.084;2023-03-14T07:53:04;96999.25;;;11.60;100.00
9189;BME280;34313;50.780;6.084;2023-03-14T07:55:29;97004.75;;;11.41;100.00
9189;BME280;34313;50.780;6.084;2023-03-14T07:57:55;97015.06;;;11.52;100.00
9189;BME280;34313;50.780;6.084;2023-03-14T08:00:29;97018.56;;;11.61;100.00
9189;BME280;34313;50.780;6.084;2023-03-14T08:02:55;97018.66;;;11.51;100.00
9189;BME280;34313;50.780;6.084;2023-03-14T08:05:20;97031.38;;;11.56;100.00
9189;BME280;34313;50.780;6.084;2023-03-14T08:07:45;97037.19;;;11.59;100.00
9189;BME280;34313;50.780;6.084;2023-03-14T08:10:11;97035.44;;;11.42;100.00
9189;BME280;34313;50.780;6.084;2023-03-14T08:12:40;97048.47;;;11.43;100.00
9189;BME280;34313;50.780;6.084;2023-03-14T08:15:06;97049.56;;;11.67;100.00
9189;BME280;34313;50.780;6.084;2023-03-14T08:17:32;97051.25;;;11.68;100.00
9189;BME280;34313;50.780;6.084;2023-03-14T08:19:58;97052.66;;;11.62;100.00
9189;BME280;34313;50.780;6.084;2023-03-14T08:22:23;97047.28;;;11.72;100.00
9189;BME280;34313;50.780;6.084;2023-03-14T08:24:48;97052.56;;;11.72;100.00
9189;BME280;34313;50.780;6.084;2023-03-14T08:27:14;97060.94;;;11.67;100.00
9189;BME280;34313;50.780;6.084;2023-03-14T08:29:40;97060.94;;;11.67;100.00
9189;BME280;34313;50.780;6.084;2023-03-14T08:32:06;97066.56;;;11.64;100.00
9189;BME280;34313;50.780;6.084;2023-03-14T08:34:33;97059.81;;;11.70;100.00
9189;BME280;34313;50.780;6.084;2023-03-14T08:36:59;97065.19;;;11.60;100.00
9189;BME280;34313;50.780;6.084;2023-03-14T08:39:24;97070.06;;;11.47;100.00
9189;BME280;34313;50.780;6.084;2023-03-14T08:41:49;97074.56;;;11.54;100.00
9189;BME280;34313;50.780;6.084;2023-03-14T08:44:15;97071.09;;;11.28;100.00
9189;BME280;34313;50.780;6.084;2023-03-14T08:46:40;97122.03;;;11.10;100.00
9189;BME280;34313;50.780;6.084;2023-03-14T08:49:05;97178.94;;;10.85;100.00
9189;BME280;34313;50.780;6.084;2023-03-14T08:51:31;97172.38;;;10.44;100.00
9189;BME280;34313;50.780;6.084;2023-03-14T08:53:56;97202.63;;;10.20;100.00
9189;BME280;34313;50.780;6.084;2023-03-14T08:56:22;97216.66;;;10.11;100.00
9189;BME280;34313;50.780;6.084;2023-03-14T08:58:47;97235.13;;;9.91;100.00
9189;BME280;34313;50.780;6.084;2023-03-14T09:01:12;97249.13;;;9.72;100.00
9189;BME280;34313;50.780;6.084;2023-03-14T09:03:38;97252.56;;;9.53;100.00
9189;BME280;34313;50.780;6.084;2023-03-14T09:06:08;97258.94;;;9.41;100.00
9189;BME280;34313;50.780;6.084;2023-03-14T09:08:35;97272.63;;;9.25;100.00
9189;BME280;34313;50.780;6.084;2023-03-14T09:11:00;97277.72;;;9.17;100.00
9189;BME280;34313;50.780;6.084;2023-03-14T09:13:26;97298.25;;;9.33;100.00
9189;BME280;34313;50.780;6.084;2023-03-14T09:15:56;97305.78;;;9.06;100.00
9189;BME280;34313;50.780;6.084;2023-03-14T09:18:22;97312.75;;;8.86;100.00
9189;BME280;34313;50.780;6.084;2023-03-14T09:20:47;97323.13;;;8.88;100.00
9189;BME280;34313;50.780;6.084;2023-03-14T09:23:13;97337.41;;;8.95;100.00
9189;BME280;34313;50.780;6.084;2023-03-14T09:25:39;97342.50;;;8.66;100.00
9189;BME280;34313;50.780;6.084;2023-03-14T09:28:07;97328.81;;;8.41;100.00
9189;BME280;34313;50.780;6.084;2023-03-14T09:30:35;97338.28;;;8.32;100.00
9189;BME280;34313;50.780;6.084;2023-03-14T09:33:01;97376.34;;;8.38;100.00
9189;BME280;34313;50.780;6.084;2023-03-14T09:35:26;97382.19;;;8.30;100.00
9189;BME280;34313;50.780;6.084;2023-03-14T09:37:51;97402.00;;;8.35;100.00
9189;BME280;34313;50.780;6.084;2023-03-14T09:40:18;97412.31;;;8.15;100.00
9189;BME280;34313;50.780;6.084;2023-03-14T09:42:46;97423.56;;;8.17;100.00
9189;BME280;34313;50.780;6.084;2023-03-14T09:45:22;97430.50;;;8.07;100.00
9189;BME280;34313;50.780;6.084;2023-03-14T09:47:48;97451.97;;;8.01;100.00
9189;BME280;34313;50.780;6.084;2023-03-14T09:50:15;97446.13;;;7.97;100.00
9189;BME280;34313;50.780;6.084;2023-03-14T09:52:42;97451.44;;;8.18;100.00
9189;BME280;34313;50.780;6.084;2023-03-14T09:55:13;97463.81;;;8.27;100.00
9189;BME280;34313;50.780;6.084;2023-03-14T09:57:41;97481.31;;;8.49;100.00
9189;BME280;34313;50.780;6.084;2023-03-14T10:00:17;97480.03;;;8.44;100.00
9189;BME280;34313;50.780;6.084;2023-03-14T10:02:51;97484.63;;;8.51;100.00
9189;BME280;34313;50.780;6.084;2023-03-14T10:05:20;97487.47;;;8.81;100.00
9189;BME280;34313;50.780;6.084;2023-03-14T10:07:46;97500.09;;;9.08;100.00
9189;BME280;34313;50.780;6.084;2023-03-14T10:10:25;97491.00;;;9.74;98.47
9189;BME280;34313;50.780;6.084;2023-03-14T10:12:59;97498.41;;;10.09;95.47
9189;BME280;34313;50.780;6.084;2023-03-14T10:15:32;97515.91;;;10.30;94.47
9189;BME280;34313;50.780;6.084;2023-03-14T10:17:59;97511.56;;;10.09;94.68
9189;BME280;34313;50.780;6.084;2023-03-14T10:20:37;97524.81;;;9.78;93.81
9189;BME280;34313;50.780;6.084;2023-03-14T10:23:06;97538.91;;;9.46;95.66
9189;BME280;34313;50.780;6.084;2023-03-14T10:25:34;97549.13;;;9.40;96.79
9189;BME280;34313;50.780;6.084;2023-03-14T10:28:02;97553.25;;;9.33;98.48
9189;BME280;34313;50.780;6.084;2023-03-14T10:30:39;97565.94;;;9.27;98.03
9189;BME280;34313;50.780;6.084;2023-03-14T10:33:33;97574.06;;;9.24;99.09
9189;BME280;34313;50.780;6.084;2023-03-14T10:36:00;97570.72;;;9.43;97.52
9189;BME280;34313;50.780;6.084;2023-03-14T10:38:32;97586.53;;;9.74;95.95
9189;BME280;34313;50.780;6.084;2023-03-14T10:40:59;97595.72;;;9.90;94.26
9189;BME280;34313;50.780;6.084;2023-03-14T10:43:27;97604.88;;;9.86;93.89
9189;BME280;34313;50.780;6.084;2023-03-14T10:45:57;97606.00;;;9.41;97.06
9189;BME280;34313;50.780;6.084;2023-03-14T10:53:22;97644.41;;;8.67;97.38
9189;BME280;34313;50.780;6.084;2023-03-14T10:55:48;97644.19;;;8.48;98.31
9189;BME280;34313;50.780;6.084;2023-03-14T11:01:00;97680.97;;;8.59;98.38
9189;BME280;34313;50.780;6.084;2023-03-14T11:03:30;97674.72;;;8.60;98.16
9189;BME280;34313;50.780;6.084;2023-03-14T11:05:58;97673.22;;;8.90;96.40
9189;BME280;34313;50.780;6.084;2023-03-14T11:08:33;97671.66;;;9.31;94.13
9189;BME280;34313;50.780;6.084;2023-03-14T11:11:11;97680.97;;;9.77;91.93
9189;BME280;34313;50.780;6.084;2023-03-14T11:13:44;97685.50;;;10.27;90.10
9189;BME280;34313;50.780;6.084;2023-03-14T11:16:26;97699.44;;;10.70;88.32
9189;BME280;34313;50.780;6.084;2023-03-14T11:27:07;97741.72;;;11.19;84.46
9189;BME280;34313;50.780;6.084;2023-03-14T11:29:41;97736.81;;;10.94;82.52
9189;BME280;34313;50.780;6.084;2023-03-14T11:32:24;97732.59;;;10.72;84.44
9189;BME280;34313;50.780;6.084;2023-03-14T11:34:54;97746.66;;;10.92;84.77
9189;BME280;34313;50.780;6.084;2023-03-14T11:37:46;97758.75;;;11.05;82.54
9189;BME280;34313;50.780;6.084;2023-03-14T11:40:16;97765.56;;;10.97;81.90
9189;BME280;34313;50.780;6.084;2023-03-14T11:42:44;97781.69;;;10.73;83.70
9189;BME280;34313;50.780;6.084;2023-03-14T11:45:18;97781.47;;;10.55;84.15
9189;BME280;34313;50.780;6.084;2023-03-14T11:47:52;97793.81;;;10.34;85.53
9189;BME280;34313;50.780;6.084;2023-03-14T11:50:27;97803.41;;;10.35;86.31
9189;BME280;34313;50.780;6.084;2023-03-14T11:53:01;97809.91;;;9.98;87.53
9189;BME280;34313;50.780;6.084;2023-03-14T11:55:32;97820.13;;;9.92;88.03
9189;BME280;34313;50.780;6.084;2023-03-14T11:58:24;97834.41;;;9.78;88.60
9189;BME280;34313;50.780;6.084;2023-03-14T12:00:53;97844.28;;;9.53;88.69
9189;BME280;34313;50.780;6.084;2023-03-14T12:11:17;97903.41;;;8.46;96.83
9189;BME280;34313;50.780;6.084;2023-03-14T12:13:47;97914.81;;;8.09;98.85
9189;BME280;34313;50.780;6.084;2023-03-14T12:18:48;97937.84;;;7.32;97.00
9189;BME280;34313;50.780;6.084;2023-03-14T12:21:14;97944.81;;;6.94;99.62
9189;BME280;34313;50.780;6.084;2023-03-14T12:23:48;97952.22;;;6.88;100.00
9189;BME280;34313;50.780;6.084;2023-03-14T12:26:21;97955.16;;;7.09;100.00
9189;BME280;34313;50.780;6.084;2023-03-14T12:29:15;97960.69;;;7.17;100.00
9189;BME280;34313;50.780;6.084;2023-03-14T12:34:52;97966.03;;;7.41;100.00
9189;BME280;34313;50.780;6.084;2023-03-14T12:37:37;97964.66;;;7.48;100.00
9189;BME280;34313;50.780;6.084;2023-03-14T12:40:28;97975.69;;;7.78;100.00
9189;BME280;34313;50.780;6.084;2023-03-14T12:43:00;97973.69;;;7.81;100.00
9189;BME280;34313;50.780;6.084;2023-03-14T12:45:31;97974.56;;;8.06;99.34
9189;BME280;34313;50.780;6.084;2023-03-14T12:48:22;97986.09;;;8.27;97.04
9189;BME280;34313;50.780;6.084;2023-03-14T12:50:56;97990.72;;;8.61;95.87
9189;BME280;34313;50.780;6.084;2023-03-14T12:59:02;98023.88;;;8.62;93.14
9189;BME280;34313;50.780;6.084;2023-03-14T13:01:33;98034.22;;;7.91;94.68
9189;BME280;34313;50.780;6.084;2023-03-14T13:04:05;98056.91;;;7.79;96.39
9189;BME280;34313;50.780;6.084;2023-03-14T13:06:50;98069.81;;;7.31;98.93
9189;BME280;34313;50.780;6.084;2023-03-14T13:11:55;98091.25;;;6.57;100.00
9189;BME280;34313;50.780;6.084;2023-03-14T13:14:22;98100.69;;;6.60;100.00
9189;BME280;34313;50.780;6.084;2023-03-14T13:16:54;98097.13;;;6.34;100.00
9189;BME280;34313;50.780;6.084;2023-03-14T13:19:37;98083.44;;;6.16;100.00
9189;BME280;34313;50.780;6.084;2023-03-14T13:22:21;98087.94;;;6.14;100.00
9189;BME280;34313;50.780;6.084;2023-03-14T13:24:47;98111.78;;;6.36;100.00
9189;BME280;34313;50.780;6.084;2023-03-14T13:27:20;98115.16;;;6.38;100.00
9189;BME280;34313;50.780;6.084;2023-03-14T13:29:48;98116.03;;;6.52;100.00
9189;BME280;34313;50.780;6.084;2023-03-14T13:32:20;98121.69;;;6.46;100.00
9189;BME280;34313;50.780;6.084;2023-03-14T13:34:46;98114.00;;;6.42;100.00
9189;BME280;34313;50.780;6.084;2023-03-14T13:37:20;98128.56;;;6.47;100.00
9189;BME280;34313;50.780;6.084;2023-03-14T13:39:50;98142.22;;;6.52;100.00
9189;BME280;34313;50.780;6.084;2023-03-14T13:42:16;98163.75;;;6.42;100.00
9189;BME280;34313;50.780;6.084;2023-03-14T13:44:43;98178.84;;;5.80;100.00
9189;BME280;34313;50.780;6.084;2023-03-14T13:47:17;98187.09;;;5.74;100.00
9189;BME280;34313;50.780;6.084;2023-03-14T13:49:43;98191.38;;;5.75;100.00
9189;BME280;34313;50.780;6.084;2023-03-14T13:52:29;98196.78;;;5.72;100.00
9189;BME280;34313;50.780;6.084;2023-03-14T13:54:57;98211.94;;;5.81;100.00
9189;BME280;34313;50.780;6.084;2023-03-14T13:57:23;98212.09;;;5.78;100.00
9189;BME280;34313;50.780;6.084;2023-03-14T14:00:00;98213.31;;;5.86;100.00
9189;BME280;34313;50.780;6.084;2023-03-14T14:02:27;98224.44;;;5.76;100.00